createdAt,value
2022-10-19T00:01:21.323Z,12.82
2022-10-19T00:03:55.107Z,15.32
2022-10-19T00:06:29.540Z,11.45
2022-10-19T00:09:09.561Z,14.38
2022-10-19T00:11:41.513Z,12.85
2022-10-19T00:14:14.080Z,10.73
2022-10-19T00:16:41.606Z,9.55
2022-10-19T00:19:21.795Z,18.83
2022-10-19T00:24:21.641Z,10.82
2022-10-19T00:26:48.833Z,11.40
2022-10-19T00:29:16.579Z,9.35
2022-10-19T00:31:43.455Z,12.85
2022-10-19T00:34:10.608Z,16.38
2022-10-19T00:36:41.054Z,12.90
2022-10-19T00:39:12.680Z,11.48
2022-10-19T00:41:40.831Z,10.55
2022-10-19T00:44:13.774Z,10.43
2022-10-19T00:46:44.037Z,16.63
2022-10-19T00:49:29.810Z,13.18
2022-10-19T00:52:04.593Z,9.20
2022-10-19T00:54:41.060Z,17.52
2022-10-19T00:57:09.703Z,11.05
2022-10-19T00:59:39.758Z,11.88
2022-10-19T01:02:07.466Z,12.40
2022-10-19T01:04:39.014Z,11.55
2022-10-19T01:07:08.138Z,8.73
2022-10-19T01:09:35.700Z,15.85
2022-10-19T01:12:45.490Z,17.00
2022-10-19T01:15:31.943Z,11.45
2022-10-19T01:18:39.268Z,13.55
2022-10-19T01:21:15.047Z,12.30
2022-10-19T01:24:18.789Z,13.38
2022-10-19T01:30:11.783Z,10.88
2022-10-19T01:32:58.962Z,19.92
2022-10-19T01:35:58.709Z,13.15
2022-10-19T01:38:38.196Z,14.68
2022-10-19T01:41:25.177Z,11.52
2022-10-19T01:44:04.749Z,14.00
2022-10-19T01:46:47.243Z,12.10
2022-10-19T01:49:35.286Z,11.60
2022-10-19T01:52:08.521Z,13.15
2022-10-19T01:54:43.805Z,12.15
2022-10-19T01:57:18.453Z,10.35
2022-10-19T01:59:48.327Z,15.80
2022-10-19T02:02:18.270Z,17.88
2022-10-19T02:04:48.617Z,13.00
2022-10-19T02:07:16.572Z,16.27
2022-10-19T02:09:43.305Z,17.30
2022-10-19T02:12:13.305Z,13.63
2022-10-19T02:14:46.182Z,13.75
2022-10-19T02:17:18.200Z,15.50
2022-10-19T02:19:45.198Z,11.88
2022-10-19T02:22:13.522Z,10.73
2022-10-19T02:24:40.636Z,14.40
2022-10-19T02:27:09.487Z,14.52
2022-10-19T02:29:38.638Z,13.57
2022-10-19T02:32:06.741Z,13.05
2022-10-19T02:34:35.127Z,15.18
2022-10-19T02:37:02.359Z,13.30
2022-10-19T02:39:29.462Z,10.82
2022-10-19T02:42:10.278Z,15.23
2022-10-19T02:44:56.197Z,13.00
2022-10-19T02:47:41.577Z,18.08
2022-10-19T02:50:11.358Z,14.15
2022-10-19T02:52:39.903Z,15.20
2022-10-19T02:55:08.582Z,20.48
2022-10-19T02:57:36.036Z,15.15
2022-10-19T03:00:08.818Z,14.18
2022-10-19T03:02:35.953Z,15.73
2022-10-19T03:05:03.939Z,16.33
2022-10-19T03:07:30.772Z,13.18
2022-10-19T03:09:57.650Z,14.60
2022-10-19T03:12:24.464Z,13.32
2022-10-19T03:14:51.177Z,13.32
2022-10-19T03:17:18.069Z,13.05
2022-10-19T03:19:45.241Z,12.68
2022-10-19T03:22:14.898Z,9.85
2022-10-19T03:24:41.736Z,13.18
2022-10-19T03:27:08.550Z,10.57
2022-10-19T03:29:35.299Z,13.00
2022-10-19T03:32:02.175Z,14.57
2022-10-19T03:34:28.937Z,11.55
2022-10-19T03:36:56.711Z,12.32
2022-10-19T03:39:23.489Z,14.27
2022-10-19T03:41:50.185Z,20.67
2022-10-19T03:44:17.012Z,13.18
2022-10-19T03:46:43.734Z,11.68
2022-10-19T03:49:11.916Z,12.40
2022-10-19T03:51:38.636Z,15.38
2022-10-19T03:54:11.414Z,11.23
2022-10-19T03:56:38.291Z,11.18
2022-10-19T03:59:06.875Z,12.32
2022-10-19T04:01:43.138Z,12.07
2022-10-19T04:04:15.741Z,18.13
2022-10-19T04:06:45.198Z,14.95
2022-10-19T04:09:15.819Z,10.68
2022-10-19T04:11:43.621Z,13.20
2022-10-19T04:14:19.216Z,16.15
2022-10-19T04:16:53.856Z,14.20
2022-10-19T04:19:20.605Z,13.57
2022-10-19T04:21:49.521Z,10.95
2022-10-19T04:24:19.220Z,11.70
2022-10-19T04:26:52.555Z,12.40
2022-10-19T04:29:23.810Z,13.90
2022-10-19T04:31:53.510Z,18.67
2022-10-19T04:34:20.416Z,13.57
2022-10-19T04:36:47.221Z,12.68
2022-10-19T04:39:14.049Z,14.52
2022-10-19T04:41:40.796Z,12.10
2022-10-19T04:44:07.642Z,13.52
2022-10-19T04:46:35.320Z,11.00
2022-10-19T04:49:04.230Z,12.52
2022-10-19T04:51:31.400Z,11.45
2022-10-19T04:53:59.617Z,14.70
2022-10-19T04:56:28.192Z,14.15
2022-10-19T04:58:57.631Z,14.57
2022-10-19T05:01:26.985Z,12.32
2022-10-19T05:06:31.226Z,17.80
2022-10-19T05:08:59.167Z,11.70
2022-10-19T05:11:26.597Z,10.82
2022-10-19T05:13:53.431Z,11.73
2022-10-19T05:16:23.269Z,15.45
2022-10-19T05:18:53.591Z,15.13
2022-10-19T05:21:21.814Z,12.60
2022-10-19T05:23:53.275Z,11.75
2022-10-19T05:26:23.771Z,9.60
2022-10-19T05:29:01.912Z,12.38
2022-10-19T05:31:33.915Z,15.63
2022-10-19T05:34:01.154Z,12.05
2022-10-19T05:36:37.989Z,14.55
2022-10-19T05:39:09.293Z,14.43
2022-10-19T05:41:36.051Z,13.77
2022-10-19T05:44:05.299Z,13.18
2022-10-19T05:46:33.478Z,13.85
2022-10-19T05:49:00.598Z,10.50
2022-10-19T05:51:28.458Z,12.18
2022-10-19T05:53:56.865Z,15.10
2022-10-19T05:56:27.646Z,15.57
2022-10-19T05:58:57.475Z,9.48
2022-10-19T06:01:25.102Z,12.30
2022-10-19T06:03:54.478Z,15.50
2022-10-19T06:06:22.175Z,11.73
2022-10-19T06:08:50.863Z,12.30
2022-10-19T06:11:24.935Z,22.50
2022-10-19T06:13:55.332Z,13.82
2022-10-19T06:16:24.044Z,14.48
2022-10-19T06:18:53.480Z,14.18
2022-10-19T06:21:24.582Z,13.63
2022-10-19T06:23:53.247Z,13.35
2022-10-19T06:26:20.877Z,12.60
2022-10-19T06:28:49.605Z,12.32
2022-10-19T06:31:17.230Z,10.57
2022-10-19T06:33:48.637Z,17.55
2022-10-19T06:38:50.399Z,10.30
2022-10-19T06:41:17.499Z,19.02
2022-10-19T06:43:44.564Z,10.25
2022-10-19T06:46:17.403Z,15.10
2022-10-19T06:48:44.226Z,11.23
2022-10-19T06:51:13.117Z,12.15
2022-10-19T06:53:39.958Z,10.50
2022-10-19T06:56:07.374Z,14.30
2022-10-19T06:58:38.953Z,11.80
2022-10-19T07:01:08.172Z,11.77
2022-10-19T07:03:36.724Z,10.50
2022-10-19T07:06:10.863Z,14.57
2022-10-19T07:08:39.848Z,11.63
2022-10-19T07:11:14.622Z,12.90
2022-10-19T07:13:41.553Z,16.45
2022-10-19T07:16:16.174Z,13.98
2022-10-19T07:18:47.138Z,11.98
2022-10-19T07:21:16.580Z,17.27
2022-10-19T07:23:47.290Z,11.35
2022-10-19T07:26:28.144Z,13.25
2022-10-19T07:28:58.380Z,13.60
2022-10-19T07:31:28.500Z,14.00
2022-10-19T07:34:01.819Z,10.98
2022-10-19T07:36:31.202Z,13.23
2022-10-19T07:38:58.337Z,13.05
2022-10-19T07:41:26.599Z,14.05
2022-10-19T07:43:54.028Z,16.38
2022-10-19T07:46:25.419Z,14.35
2022-10-19T07:48:52.620Z,13.07
2022-10-19T07:51:20.544Z,11.68
2022-10-19T07:53:47.842Z,12.05
2022-10-19T07:56:21.862Z,10.27
2022-10-19T07:58:51.396Z,13.00
2022-10-19T08:01:28.818Z,12.80
2022-10-19T08:04:43.276Z,11.20
2022-10-19T08:06:44.461Z,11.73
2022-10-19T08:09:18.899Z,12.07
2022-10-19T08:11:54.712Z,11.60
2022-10-19T08:14:21.483Z,11.00
2022-10-19T08:16:48.253Z,12.85
2022-10-19T08:19:16.807Z,13.27
2022-10-19T08:21:46.945Z,15.80
2022-10-19T08:24:17.021Z,10.45
2022-10-19T08:26:44.293Z,16.25
2022-10-19T08:29:18.497Z,9.73
2022-10-19T08:31:47.725Z,10.30
2022-10-19T08:34:16.019Z,12.25
2022-10-19T08:36:43.068Z,13.05
2022-10-19T08:39:12.687Z,9.93
2022-10-19T08:41:42.262Z,11.70
2022-10-19T08:44:58.985Z,11.48
2022-10-19T08:47:51.339Z,10.93
2022-10-19T08:50:24.362Z,7.75
2022-10-19T08:53:06.105Z,8.20
2022-10-19T08:56:12.380Z,10.82
2022-10-19T08:59:26.597Z,7.43
2022-10-19T09:02:39.218Z,12.10
2022-10-19T09:05:21.688Z,13.93
2022-10-19T09:07:53.603Z,9.02
2022-10-19T09:10:28.851Z,5.68
2022-10-19T09:13:05.625Z,9.82
2022-10-19T09:15:46.736Z,8.27
2022-10-19T09:18:30.027Z,7.63
2022-10-19T09:21:28.134Z,7.78
2022-10-19T09:24:37.021Z,5.85
2022-10-19T09:27:05.801Z,8.00
2022-10-19T09:29:38.415Z,9.18
2022-10-19T09:32:19.282Z,6.00
2022-10-19T09:34:53.024Z,6.65
2022-10-19T09:37:26.407Z,9.15
2022-10-19T09:39:56.056Z,5.20
2022-10-19T09:42:33.515Z,5.20
2022-10-19T09:45:14.661Z,5.78
2022-10-19T09:47:48.140Z,14.05
2022-10-19T09:50:27.136Z,9.77
2022-10-19T09:53:02.795Z,7.13
2022-10-19T09:58:19.855Z,8.75
2022-10-19T10:00:52.336Z,7.15
2022-10-19T10:03:40.355Z,9.88
2022-10-19T10:06:16.156Z,4.65
2022-10-19T10:08:50.079Z,9.00
2022-10-19T10:11:30.365Z,6.80
2022-10-19T10:14:06.175Z,6.10
2022-10-19T10:16:36.731Z,6.30
2022-10-19T10:19:08.019Z,5.13
2022-10-19T10:21:57.802Z,5.53
2022-10-19T10:24:34.641Z,5.18
2022-10-19T10:27:06.122Z,8.30
2022-10-19T10:29:36.492Z,5.28
2022-10-19T10:32:20.180Z,8.50
2022-10-19T10:35:00.967Z,8.05
2022-10-19T10:37:39.028Z,10.05
2022-10-19T10:40:23.330Z,6.68
2022-10-19T10:45:29.165Z,9.32
2022-10-19T10:47:57.984Z,9.10
2022-10-19T10:50:34.541Z,5.45
2022-10-19T10:53:05.359Z,6.97
2022-10-19T10:55:33.897Z,7.00
2022-10-19T10:58:25.466Z,5.32
2022-10-19T11:00:56.221Z,7.22
2022-10-19T11:03:32.782Z,5.70
2022-10-19T11:06:01.123Z,6.72
2022-10-19T11:08:44.389Z,4.45
2022-10-19T11:11:30.429Z,5.22
2022-10-19T11:14:10.873Z,7.45
2022-10-19T11:16:45.856Z,5.10
2022-10-19T11:19:35.285Z,6.53
2022-10-19T11:23:02.246Z,4.18
2022-10-19T11:25:41.750Z,5.47
2022-10-19T11:28:55.447Z,7.75
2022-10-19T11:31:47.847Z,5.50
2022-10-19T11:34:32.756Z,5.68
2022-10-19T11:37:20.974Z,4.57
2022-10-19T11:40:18.682Z,8.95
2022-10-19T11:43:04.757Z,4.60
2022-10-19T11:45:50.510Z,7.75
2022-10-19T11:49:01.764Z,3.72
2022-10-19T11:51:51.879Z,3.30
2022-10-19T11:54:35.073Z,5.13
2022-10-19T11:57:17.334Z,6.97
2022-10-19T12:00:15.356Z,8.88
2022-10-19T12:03:31.650Z,6.30
2022-10-19T12:06:34.510Z,5.55
2022-10-19T12:09:06.184Z,8.98
2022-10-19T12:12:11.378Z,4.63
2022-10-19T12:14:43.929Z,6.53
2022-10-19T12:17:34.426Z,6.50
2022-10-19T12:20:31.111Z,6.28
2022-10-19T12:23:02.219Z,5.40
2022-10-19T12:25:29.457Z,8.68
2022-10-19T12:27:57.861Z,7.07
2022-10-19T12:30:25.011Z,4.45
2022-10-19T12:33:19.847Z,5.93
2022-10-19T12:36:24.730Z,5.63
2022-10-19T12:39:07.823Z,9.18
2022-10-19T12:42:12.095Z,5.85
2022-10-19T12:45:13.726Z,4.45
2022-10-19T12:47:40.982Z,6.22
2022-10-19T12:50:08.048Z,5.65
2022-10-19T12:52:49.447Z,6.53
2022-10-19T12:55:16.074Z,6.40
2022-10-19T12:57:55.821Z,5.70
2022-10-19T13:00:26.384Z,5.18
2022-10-19T13:03:04.616Z,6.53
2022-10-19T13:08:10.638Z,6.55
2022-10-19T13:10:40.630Z,6.05
2022-10-19T13:13:54.871Z,5.82
2022-10-19T13:16:30.350Z,5.07
2022-10-19T13:19:13.769Z,5.85
2022-10-19T13:21:59.407Z,10.52
2022-10-19T13:24:26.063Z,5.47
2022-10-19T13:27:04.673Z,7.72
2022-10-19T13:29:38.401Z,4.70
2022-10-19T13:32:32.429Z,6.38
2022-10-19T13:35:38.905Z,5.53
2022-10-19T13:38:11.513Z,4.82
2022-10-19T13:40:48.528Z,4.65
2022-10-19T13:43:22.375Z,5.18
2022-10-19T13:46:19.921Z,6.13
2022-10-19T13:49:02.229Z,5.70
2022-10-19T13:52:21.342Z,4.38
2022-10-19T13:55:15.004Z,4.03
2022-10-19T13:57:50.059Z,5.07
2022-10-19T14:00:23.971Z,6.38
2022-10-19T14:03:59.986Z,6.57
2022-10-19T14:06:55.996Z,4.15
2022-10-19T14:09:34.712Z,5.15
2022-10-19T14:12:26.789Z,7.35
2022-10-19T14:14:54.474Z,5.88
2022-10-19T14:17:30.189Z,5.63
2022-10-19T14:19:59.220Z,8.07
2022-10-19T14:22:33.846Z,6.55
2022-10-19T14:25:23.771Z,6.95
2022-10-19T14:27:59.787Z,5.88
2022-10-19T14:30:34.580Z,8.52
2022-10-19T14:33:09.125Z,6.75
2022-10-19T14:35:40.475Z,4.00
2022-10-19T14:38:19.863Z,5.72
2022-10-19T14:40:46.849Z,6.55
2022-10-19T14:43:34.747Z,5.60
2022-10-19T14:46:15.135Z,7.78
2022-10-19T14:48:51.001Z,7.53
2022-10-19T14:51:36.348Z,8.15
2022-10-19T14:54:18.937Z,7.80
2022-10-19T14:56:58.588Z,7.40
2022-10-19T14:59:37.442Z,6.13
2022-10-19T15:02:22.450Z,5.05
2022-10-19T15:04:52.836Z,6.13
2022-10-19T15:07:27.985Z,5.55
2022-10-19T15:10:01.245Z,13.18
2022-10-19T15:12:40.246Z,6.85
2022-10-19T15:15:15.891Z,9.25
2022-10-19T15:18:43.588Z,5.35
2022-10-19T15:21:19.424Z,9.25
2022-10-19T15:23:52.547Z,9.38
2022-10-19T15:26:29.706Z,8.23
2022-10-19T15:29:21.221Z,10.93
2022-10-19T15:31:48.201Z,6.60
2022-10-19T15:34:28.675Z,8.55
2022-10-19T15:37:01.476Z,8.70
2022-10-19T15:39:40.981Z,8.77
2022-10-19T15:42:45.520Z,7.82
2022-10-19T15:45:47.646Z,8.85
2022-10-19T15:48:27.212Z,7.55
2022-10-19T15:50:55.943Z,8.05
2022-10-19T15:53:23.237Z,8.35
2022-10-19T15:55:50.121Z,8.40
2022-10-19T15:58:17.995Z,8.35
2022-10-19T16:00:44.860Z,8.88
2022-10-19T16:03:11.665Z,8.52
2022-10-19T16:05:38.598Z,6.93
2022-10-19T16:08:08.906Z,11.35
2022-10-19T16:10:38.423Z,8.13
2022-10-19T16:13:05.166Z,5.75
2022-10-19T16:15:31.912Z,8.40
2022-10-19T16:18:00.493Z,9.80
2022-10-19T16:20:29.914Z,9.32
2022-10-19T16:22:57.269Z,9.75
2022-10-19T16:25:24.528Z,11.85
2022-10-19T16:27:51.567Z,8.15
2022-10-19T16:30:18.384Z,9.73
2022-10-19T16:32:48.655Z,13.13
2022-10-19T16:35:16.249Z,10.32
2022-10-19T16:37:43.030Z,8.38
2022-10-19T16:40:10.513Z,11.65
2022-10-19T16:42:37.608Z,8.00
2022-10-19T16:45:04.872Z,9.48
2022-10-19T16:47:31.549Z,9.23
2022-10-19T16:50:01.602Z,8.75
2022-10-19T16:52:31.851Z,7.78
2022-10-19T16:54:59.987Z,8.10
2022-10-19T16:57:26.853Z,8.50
2022-10-19T16:59:54.784Z,5.40
2022-10-19T17:02:22.828Z,7.07
2022-10-19T17:04:49.685Z,8.90
2022-10-19T17:07:17.337Z,9.90
2022-10-19T17:09:44.441Z,6.72
2022-10-19T17:12:12.189Z,7.43
2022-10-19T17:14:41.422Z,5.95
2022-10-19T17:17:10.330Z,7.45
2022-10-19T17:19:38.297Z,8.77
2022-10-19T17:22:05.587Z,6.45
2022-10-19T17:24:32.708Z,6.35
2022-10-19T17:27:03.385Z,8.02
2022-10-19T17:29:30.631Z,8.98
2022-10-19T17:31:58.367Z,9.73
2022-10-19T17:34:25.364Z,6.85
2022-10-19T17:36:52.194Z,9.00
2022-10-19T17:39:25.797Z,7.22
2022-10-19T17:42:01.676Z,11.88
2022-10-19T17:44:31.186Z,5.93
2022-10-19T17:46:59.357Z,7.47
2022-10-19T17:49:26.145Z,7.22
2022-10-19T17:51:53.676Z,6.88
2022-10-19T17:54:20.566Z,12.10
2022-10-19T17:56:47.424Z,7.80
2022-10-19T17:59:14.459Z,8.50
2022-10-19T18:01:41.647Z,6.15
2022-10-19T18:04:08.477Z,8.10
2022-10-19T18:06:37.416Z,10.48
2022-10-19T18:09:08.648Z,5.72
2022-10-19T18:11:40.800Z,10.50
2022-10-19T18:16:47.698Z,5.45
2022-10-19T18:19:17.005Z,6.43
2022-10-19T18:21:46.626Z,9.50
2022-10-19T18:24:19.784Z,10.10
2022-10-19T18:26:51.108Z,6.35
2022-10-19T18:29:24.901Z,7.88
2022-10-19T18:31:53.103Z,10.05
2022-10-19T18:34:25.040Z,7.60
2022-10-19T18:36:53.046Z,10.25
2022-10-19T18:39:20.389Z,7.43
2022-10-19T18:41:54.048Z,6.80
2022-10-19T18:44:25.286Z,7.50
2022-10-19T18:46:54.945Z,9.05
2022-10-19T18:49:21.717Z,7.80
2022-10-19T18:51:54.067Z,10.68
2022-10-19T18:54:23.097Z,7.72
2022-10-19T18:56:49.845Z,7.10
2022-10-19T18:59:16.805Z,8.70
2022-10-19T19:01:43.701Z,9.80
2022-10-19T19:04:10.677Z,8.65
2022-10-19T19:06:38.809Z,7.47
2022-10-19T19:09:10.773Z,9.77
2022-10-19T19:11:40.989Z,8.93
2022-10-19T19:14:20.864Z,9.50
2022-10-19T19:16:47.849Z,8.35
2022-10-19T19:19:17.679Z,6.07
2022-10-19T19:21:45.984Z,9.23
2022-10-19T19:24:31.517Z,9.80
2022-10-19T19:26:58.904Z,8.52
2022-10-19T19:29:26.088Z,12.52
2022-10-19T19:31:53.497Z,11.77
2022-10-19T19:34:20.480Z,9.40
2022-10-19T19:36:48.474Z,7.53
2022-10-19T19:39:20.013Z,6.82
2022-10-19T19:41:48.652Z,9.27
2022-10-19T19:44:16.097Z,12.27
2022-10-19T19:46:43.240Z,7.97
2022-10-19T19:49:10.044Z,9.48
2022-10-19T19:51:36.919Z,8.48
2022-10-19T19:54:04.641Z,8.75
2022-10-19T19:56:32.737Z,7.57
2022-10-19T19:59:03.446Z,9.48
2022-10-19T20:01:31.243Z,7.35
2022-10-19T20:06:30.499Z,6.88
2022-10-19T20:08:57.496Z,7.00
2022-10-19T20:11:27.422Z,9.43
2022-10-19T20:13:55.200Z,7.70
2022-10-19T20:16:29.137Z,8.93
2022-10-19T20:19:04.401Z,9.40
2022-10-19T20:21:31.860Z,8.07
2022-10-19T20:23:58.739Z,8.00
2022-10-19T20:26:26.374Z,7.13
2022-10-19T20:28:53.483Z,10.82
2022-10-19T20:31:21.074Z,6.80
2022-10-19T20:33:47.963Z,8.77
2022-10-19T20:36:23.474Z,10.73
2022-10-19T20:38:56.960Z,9.05
2022-10-19T20:41:26.569Z,10.82
2022-10-19T20:43:55.159Z,11.07
2022-10-19T20:46:25.975Z,9.50
2022-10-19T20:48:55.003Z,9.00
2022-10-19T20:51:32.581Z,10.32
2022-10-19T20:54:03.057Z,9.82
2022-10-19T20:56:34.040Z,8.23
2022-10-19T20:59:06.239Z,9.07
2022-10-19T21:01:35.800Z,9.63
2022-10-19T21:04:05.671Z,9.95
2022-10-19T21:06:37.599Z,8.18
2022-10-19T21:09:04.570Z,11.25
2022-10-19T21:11:35.764Z,10.38
2022-10-19T21:14:06.991Z,12.95
2022-10-19T21:16:35.146Z,10.80
2022-10-19T21:19:07.419Z,7.93
2022-10-19T21:21:38.602Z,9.88
2022-10-19T21:24:11.483Z,11.52
2022-10-19T21:26:39.487Z,7.65
2022-10-19T21:29:09.639Z,9.98
2022-10-19T21:31:39.687Z,9.95
2022-10-19T21:34:11.590Z,8.35
2022-10-19T21:36:38.562Z,8.52
2022-10-19T21:39:05.496Z,10.93
2022-10-19T21:41:32.490Z,9.90
2022-10-19T21:44:00.465Z,11.68
2022-10-19T21:46:27.676Z,15.52
2022-10-19T21:48:55.833Z,12.60
2022-10-19T21:51:39.599Z,8.98
2022-10-19T21:54:12.430Z,11.43
2022-10-19T21:56:39.313Z,13.00
2022-10-19T21:59:06.200Z,9.40
2022-10-19T22:01:38.504Z,12.45
2022-10-19T22:04:12.725Z,10.32
2022-10-19T22:06:41.030Z,8.75
2022-10-19T22:09:12.319Z,7.40
2022-10-19T22:11:39.210Z,11.48
2022-10-19T22:14:06.066Z,12.48
2022-10-19T22:16:36.710Z,11.55
2022-10-19T22:19:05.135Z,13.25
2022-10-19T22:21:34.071Z,10.60
2022-10-19T22:24:05.550Z,9.63
2022-10-19T22:26:50.669Z,15.55
2022-10-19T22:29:18.085Z,14.23
2022-10-19T22:31:45.146Z,14.20
2022-10-19T22:34:15.967Z,12.85
2022-10-19T22:36:43.988Z,11.20
2022-10-19T22:39:11.561Z,13.45
2022-10-19T22:42:53.038Z,9.77
2022-10-19T22:45:38.588Z,11.73
2022-10-19T22:48:05.773Z,9.90
2022-10-19T22:50:32.533Z,14.23
2022-10-19T22:52:59.649Z,14.35
2022-10-19T22:55:26.397Z,12.20
2022-10-19T22:57:53.154Z,12.40
2022-10-19T23:00:20.291Z,12.38
2022-10-19T23:02:47.047Z,11.85
2022-10-19T23:05:13.942Z,14.98
2022-10-19T23:07:40.733Z,11.40
2022-10-19T23:10:08.893Z,16.27
2022-10-19T23:12:35.721Z,16.80
2022-10-19T23:15:02.520Z,14.20
2022-10-19T23:17:29.351Z,14.48
2022-10-19T23:19:56.354Z,17.40
2022-10-19T23:22:23.182Z,11.90
2022-10-19T23:24:50.014Z,13.35
2022-10-19T23:27:16.778Z,11.27
2022-10-19T23:29:43.503Z,13.60
2022-10-19T23:32:10.227Z,13.60
2022-10-19T23:34:37.003Z,16.92
2022-10-19T23:37:03.718Z,11.25
2022-10-19T23:39:30.523Z,13.32
2022-10-19T23:41:57.262Z,15.05
2022-10-19T23:44:24.205Z,13.93
2022-10-19T23:46:50.940Z,13.80
2022-10-19T23:49:17.725Z,13.38
2022-10-19T23:51:44.496Z,13.27
2022-10-19T23:54:11.321Z,10.82
2022-10-19T23:56:38.292Z,11.50
2022-10-19T23:59:07.771Z,15.25
